createdAt,value
2022-08-08T00:03:32.947Z,91
2022-08-08T00:08:04.208Z,91
2022-08-08T00:13:03.522Z,91
2022-08-08T00:18:04.904Z,91
2022-08-08T00:23:07.840Z,91
2022-08-08T00:28:02.147Z,91
2022-08-08T00:33:02.557Z,91
2022-08-08T00:38:03.382Z,91
2022-08-08T00:43:20.368Z,91
2022-08-08T00:48:33.677Z,91
2022-08-08T00:53:02.331Z,91
2022-08-08T00:58:02.033Z,91
2022-08-08T01:04:04.145Z,91
2022-08-08T01:08:03.494Z,91
2022-08-08T01:13:02.819Z,92
2022-08-08T01:18:04.161Z,92
2022-08-08T01:23:03.241Z,92
2022-08-08T01:28:02.485Z,92
2022-08-08T01:33:24.142Z,92
2022-08-08T01:38:03.255Z,92
2022-08-08T01:43:02.485Z,93
2022-08-08T01:48:31.760Z,93
2022-08-08T01:56:28.261Z,93
2022-08-08T01:58:13.885Z,93
2022-08-08T02:03:07.552Z,92
2022-08-08T02:08:04.741Z,92
2022-08-08T02:13:02.542Z,92
2022-08-08T02:18:03.160Z,92
2022-08-08T02:23:04.286Z,93
2022-08-08T02:28:03.293Z,93
2022-08-08T02:33:03.523Z,93
2022-08-08T02:38:05.734Z,93
2022-08-08T02:44:56.716Z,93
2022-08-08T02:48:02.619Z,93
2022-08-08T02:53:04.241Z,93
2022-08-08T02:58:03.005Z,93
2022-08-08T03:03:03.010Z,93
2022-08-08T03:08:03.009Z,93
2022-08-08T03:15:56.684Z,93
2022-08-08T03:18:07.215Z,93
2022-08-08T03:23:05.127Z,94
2022-08-08T03:28:02.980Z,94
2022-08-08T03:33:54.010Z,94
2022-08-08T03:39:14.205Z,94
2022-08-08T03:43:20.167Z,94
2022-08-08T03:48:03.042Z,94
2022-08-08T03:53:03.367Z,94
2022-08-08T03:58:38.316Z,94
2022-08-08T04:03:04.415Z,94
2022-08-08T04:08:02.506Z,94
2022-08-08T04:13:19.020Z,93
2022-08-08T04:18:03.279Z,93
2022-08-08T04:23:07.988Z,93
2022-08-08T04:28:41.482Z,93
2022-08-08T04:33:02.939Z,93
2022-08-08T04:38:03.001Z,93
2022-08-08T04:43:02.367Z,93
2022-08-08T04:48:03.766Z,93
2022-08-08T04:53:52.611Z,93
2022-08-08T04:58:03.105Z,93
2022-08-08T05:03:05.882Z,92
2022-08-08T05:08:02.953Z,92
2022-08-08T05:13:03.112Z,92
2022-08-08T05:18:03.078Z,92
2022-08-08T05:23:03.981Z,91
2022-08-08T05:28:07.864Z,91
2022-08-08T05:33:03.642Z,89
2022-08-08T05:38:04.445Z,89
2022-08-08T05:43:02.929Z,89
2022-08-08T05:48:09.822Z,89
2022-08-08T05:54:51.197Z,89
2022-08-08T05:58:17.271Z,89
2022-08-08T06:03:02.577Z,87
2022-08-08T06:08:28.309Z,87
2022-08-08T06:13:03.877Z,84
2022-08-08T06:18:22.680Z,84
2022-08-08T06:23:03.474Z,79
2022-08-08T06:28:02.591Z,79
2022-08-08T06:33:02.797Z,80
2022-08-08T06:38:03.100Z,80
2022-08-08T06:43:02.853Z,77
2022-08-08T06:48:05.118Z,77
2022-08-08T06:53:20.577Z,77
2022-08-08T06:58:04.898Z,77
2022-08-08T07:03:05.187Z,78
2022-08-08T07:08:04.826Z,78
2022-08-08T07:13:03.682Z,78
2022-08-08T07:18:40.671Z,78
2022-08-08T07:23:04.907Z,77
2022-08-08T07:28:08.571Z,77
2022-08-08T07:33:03.510Z,76
2022-08-08T07:38:25.596Z,76
2022-08-08T07:43:09.983Z,75
2022-08-08T07:48:02.487Z,75
2022-08-08T07:53:03.517Z,72
2022-08-08T07:58:03.616Z,72
2022-08-08T08:03:04.243Z,72
2022-08-08T08:08:18.955Z,72
2022-08-08T08:13:04.868Z,68
2022-08-08T08:18:02.338Z,68
2022-08-08T08:23:03.866Z,65
2022-08-08T08:28:03.708Z,65
2022-08-08T08:33:04.344Z,66
2022-08-08T08:38:19.684Z,66
2022-08-08T08:43:18.607Z,64
2022-08-08T08:48:03.102Z,64
2022-08-08T08:53:56.682Z,66
2022-08-08T08:58:03.899Z,66
2022-08-08T09:03:03.212Z,70
2022-08-08T09:08:21.276Z,70
2022-08-08T09:13:02.633Z,70
2022-08-08T09:18:04.002Z,70
2022-08-08T09:23:03.664Z,70
2022-08-08T09:28:03.744Z,70
2022-08-08T09:34:31.221Z,71
2022-08-08T09:38:06.127Z,71
2022-08-08T09:43:24.114Z,71
2022-08-08T09:48:28.915Z,71
2022-08-08T09:53:53.071Z,72
2022-08-08T09:58:04.970Z,72
2022-08-08T10:03:03.951Z,70
2022-08-08T10:08:03.282Z,70
2022-08-08T10:13:15.198Z,69
2022-08-08T10:18:17.675Z,69
2022-08-08T10:23:02.859Z,69
2022-08-08T10:28:03.559Z,69
2022-08-08T10:33:03.002Z,68
2022-08-08T10:38:05.700Z,68
2022-08-08T10:43:03.061Z,66
2022-08-08T10:48:03.285Z,66
2022-08-08T10:53:12.548Z,63
2022-08-08T10:58:06.564Z,63
2022-08-08T11:03:03.223Z,67
2022-08-08T11:08:50.083Z,67
2022-08-08T11:13:31.917Z,67
2022-08-08T11:18:02.999Z,67
2022-08-08T11:23:06.123Z,66
2022-08-08T11:28:04.880Z,66
2022-08-08T11:33:05.539Z,62
2022-08-08T11:38:43.923Z,62
2022-08-08T11:43:03.614Z,61
2022-08-08T11:48:09.961Z,61
2022-08-08T11:53:06.748Z,60
2022-08-08T11:58:15.757Z,60
2022-08-08T12:03:04.228Z,60
2022-08-08T12:08:04.650Z,60
2022-08-08T12:13:03.568Z,59
2022-08-08T12:18:03.331Z,59
2022-08-08T12:23:03.468Z,56
2022-08-08T12:28:02.583Z,56
2022-08-08T12:33:08.009Z,61
2022-08-08T12:38:03.101Z,61
2022-08-08T12:43:04.001Z,58
2022-08-08T12:48:37.947Z,58
2022-08-08T12:53:03.664Z,56
2022-08-08T12:58:04.092Z,56
2022-08-08T13:03:02.780Z,56
2022-08-08T13:08:05.449Z,56
2022-08-08T13:13:08.367Z,57
2022-08-08T13:18:21.673Z,57
2022-08-08T13:23:46.486Z,57
2022-08-08T13:28:03.320Z,57
2022-08-08T13:33:02.650Z,60
2022-08-08T13:38:08.502Z,60
2022-08-08T13:43:04.247Z,62
2022-08-08T13:48:03.894Z,62
2022-08-08T13:53:26.216Z,64
2022-08-08T13:58:19.815Z,64
2022-08-08T14:08:34.593Z,63
2022-08-08T14:13:03.650Z,64
2022-08-08T14:18:53.939Z,64
2022-08-08T14:23:21.143Z,64
2022-08-08T14:28:05.447Z,64
2022-08-08T14:33:15.381Z,65
2022-08-08T14:38:34.041Z,65
2022-08-08T14:44:11.219Z,64
2022-08-08T14:48:03.211Z,64
2022-08-08T14:53:04.376Z,64
2022-08-08T14:58:16.767Z,64
2022-08-08T15:03:17.017Z,64
2022-08-08T15:08:09.563Z,64
2022-08-08T15:13:02.593Z,65
2022-08-08T15:18:02.997Z,65
2022-08-08T15:23:03.113Z,64
2022-08-08T15:28:35.058Z,64
2022-08-08T15:33:02.713Z,64
2022-08-08T15:38:03.521Z,64
2022-08-08T15:43:36.621Z,64
2022-08-08T15:48:16.465Z,64
2022-08-08T15:53:04.337Z,62
2022-08-08T15:58:02.734Z,62
2022-08-08T16:03:03.603Z,62
2022-08-08T16:08:04.158Z,62
2022-08-08T16:13:46.384Z,63
2022-08-08T16:18:12.525Z,63
2022-08-08T16:23:02.809Z,63
2022-08-08T16:28:02.659Z,63
2022-08-08T16:33:03.253Z,64
2022-08-08T16:38:04.336Z,64
2022-08-08T16:43:02.720Z,62
2022-08-08T16:48:02.964Z,62
2022-08-08T16:55:52.442Z,64
2022-08-08T16:58:17.812Z,64
2022-08-08T17:03:03.473Z,64
2022-08-08T17:08:02.775Z,64
2022-08-08T17:13:07.512Z,65
2022-08-08T17:18:15.731Z,65
2022-08-08T17:24:00.375Z,66
2022-08-08T17:28:02.661Z,66
2022-08-08T17:35:52.229Z,66
2022-08-08T17:38:03.939Z,66
2022-08-08T17:43:03.127Z,67
2022-08-08T17:48:03.534Z,67
2022-08-08T17:53:02.838Z,68
2022-08-08T17:58:03.084Z,68
2022-08-08T18:03:13.151Z,68
2022-08-08T18:08:04.736Z,68
2022-08-08T18:13:02.936Z,69
2022-08-08T18:18:31.687Z,69
2022-08-08T18:23:04.642Z,71
2022-08-08T18:28:03.217Z,71
2022-08-08T18:33:04.177Z,72
2022-08-08T18:38:16.879Z,72
2022-08-08T18:43:16.941Z,74
2022-08-08T18:48:10.205Z,74
2022-08-08T18:53:02.871Z,75
2022-08-08T18:58:03.673Z,75
2022-08-08T19:03:07.060Z,77
2022-08-08T19:08:04.371Z,77
2022-08-08T19:13:02.686Z,79
2022-08-08T19:18:57.415Z,79
2022-08-08T19:23:04.389Z,79
2022-08-08T19:28:20.029Z,79
2022-08-08T19:33:02.856Z,81
2022-08-08T19:38:03.266Z,81
2022-08-08T19:43:12.248Z,82
2022-08-08T19:48:03.567Z,82
2022-08-08T19:53:50.879Z,83
2022-08-08T19:58:04.190Z,83
2022-08-08T20:04:03.399Z,84
2022-08-08T20:08:32.005Z,84
2022-08-08T20:14:36.028Z,85
2022-08-08T20:18:04.038Z,85
2022-08-08T20:23:16.048Z,86
2022-08-08T20:28:18.890Z,86
2022-08-08T20:33:19.920Z,86
2022-08-08T20:38:03.754Z,86
2022-08-08T20:43:16.574Z,87
2022-08-08T20:48:03.562Z,87
2022-08-08T20:53:10.994Z,88
2022-08-08T20:58:03.065Z,88
2022-08-08T21:03:03.741Z,89
2022-08-08T21:08:49.536Z,89
2022-08-08T21:13:03.218Z,88
2022-08-08T21:18:04.277Z,88
2022-08-08T21:23:02.956Z,88
2022-08-08T21:28:19.349Z,88
2022-08-08T21:33:11.910Z,87
2022-08-08T21:38:11.788Z,87
2022-08-08T21:43:03.373Z,87
2022-08-08T21:55:01.847Z,88
2022-08-08T21:58:13.527Z,88
2022-08-08T22:03:07.182Z,88
2022-08-08T22:08:03.500Z,88
2022-08-08T22:13:19.751Z,89
2022-08-08T22:18:12.674Z,89
2022-08-08T22:23:07.989Z,89
2022-08-08T22:29:58.945Z,89
2022-08-08T22:34:14.121Z,90
2022-08-08T22:38:03.132Z,90
2022-08-08T22:43:03.347Z,91
2022-08-08T22:48:03.890Z,91
2022-08-08T22:54:39.209Z,91
2022-08-08T22:58:03.423Z,91
2022-08-08T23:03:04.051Z,91
2022-08-08T23:08:03.282Z,91
2022-08-08T23:13:05.308Z,91
2022-08-08T23:18:04.405Z,91
2022-08-08T23:23:03.536Z,91
2022-08-08T23:28:04.356Z,91
2022-08-08T23:33:03.453Z,91
2022-08-08T23:38:04.116Z,91
2022-08-08T23:43:04.798Z,92
2022-08-08T23:49:14.967Z,92
2022-08-08T23:53:05.604Z,92
2022-08-08T23:58:03.721Z,92
